Time;durP1;ratioP1;P1;durP2;ratioP2;P2;SDS_P1;SDS_P2;PMS_P1;PMS_P2;Temp;Humidity;BMP_temperature;BMP_pressure;BME280_temperature;BME280_humidity;BME280_pressure;Samples;Min_cycle;Max_cycle;Signal;HPM_P1;HPM_P2
2023/07/07 00:01:40;;;;;;;;;5.00;4.75;;;;;24.02;34.55;101113.31;4920155;28;63422;-52
2023/07/07 00:04:05;;;;;;;;;8.75;5.00;;;;;24.02;34.22;101119.44;4920712;28;45326;-54
2023/07/07 00:06:30;;;;;;;;;5.50;5.00;;;;;24.00;34.66;101110.75;4920378;28;49653;-50
2023/07/07 00:08:56;;;;;;;;;4.00;4.00;;;;;24.01;34.44;101117.72;4920795;28;46235;-48
2023/07/07 00:11:22;;;;;;;;;6.00;5.00;;;;;24.00;34.14;101120.50;4920471;28;45356;-51
2023/07/07 00:13:47;;;;;;;;;6.00;4.75;;;;;23.99;34.13;101121.44;4920633;28;45298;-51
2023/07/07 00:16:13;;;;;;;;;5.00;3.00;;;;;23.99;34.38;101114.34;4919602;28;45367;-50
2023/07/07 00:18:39;;;;;;;;;4.25;4.25;;;;;23.98;34.52;101109.97;4920309;28;45349;-53
2023/07/07 00:21:05;;;;;;;;;5.00;5.00;;;;;23.97;34.44;101116.25;4935022;28;45441;-51
2023/07/07 00:23:30;;;;;;;;;4.25;4.25;;;;;23.97;34.10;101118.03;4920227;28;45429;-54
2023/07/07 00:26:07;;;;;;;;;4.00;3.00;;;;;23.95;33.99;101123.44;4920670;28;45531;-50
2023/07/07 00:28:33;;;;;;;;;5.50;5.50;;;;;23.95;34.60;101128.75;4920213;28;45304;-52
2023/07/07 00:30:59;;;;;;;;;5.00;5.00;;;;;23.93;34.42;101125.31;4920518;28;45753;-50
2023/07/07 00:33:25;;;;;;;;;4.25;4.25;;;;;23.93;34.41;101126.16;4920719;28;45392;-53
2023/07/07 00:35:51;;;;;;;;;3.75;3.75;;;;;23.92;34.25;101121.78;4919290;28;45666;-55
2023/07/07 00:38:17;;;;;;;;;3.00;3.00;;;;;23.90;34.31;101121.06;4920122;28;45657;-54
2023/07/07 00:40:43;;;;;;;;;3.75;3.25;;;;;23.90;33.89;101120.22;4920050;28;45416;-51
2023/07/07 00:43:17;;;;;;;;;4.50;4.25;;;;;23.90;34.57;101120.22;4920024;28;45398;-51
2023/07/07 00:45:43;;;;;;;;;5.50;3.00;;;;;23.89;34.06;101115.84;4920287;28;45381;-54
2023/07/07 00:48:19;;;;;;;;;6.50;4.00;;;;;23.88;34.52;101116.81;4919848;28;45439;-54
2023/07/07 00:51:04;;;;;;;;;7.25;4.50;;;;;23.86;34.06;101102.84;4920038;28;45851;-53
2023/07/07 00:53:30;;;;;;;;;4.00;4.00;;;;;23.86;34.27;101108.97;4920392;28;45298;-52
2023/07/07 00:56:00;;;;;;;;;5.00;4.50;;;;;23.86;34.21;101110.78;4935302;28;45384;-49
2023/07/07 00:58:26;;;;;;;;;6.75;5.00;;;;;23.87;34.61;101115.09;4920133;28;45418;-54
2023/07/07 01:00:59;;;;;;;;;6.50;4.25;;;;;23.86;34.32;101102.84;4919846;28;45346;-52
2023/07/07 01:03:31;;;;;;;;;5.00;5.00;;;;;23.84;34.62;101096.81;4920010;28;45228;-53
2023/07/07 01:06:01;;;;;;;;;3.50;3.50;;;;;23.84;34.08;101094.16;4920281;28;45462;-55
2023/07/07 01:08:27;;;;;;;;;4.75;4.00;;;;;23.83;34.61;101095.94;4919925;28;45634;-52
2023/07/07 01:10:53;;;;;;;;;4.00;3.25;;;;;23.83;34.72;101089.81;4919616;28;45326;-49
2023/07/07 01:13:18;;;;;;;;;7.00;4.00;;;;;23.83;34.69;101092.44;4919356;28;52348;-54
2023/07/07 01:16:12;;;;;;;;;6.75;5.00;;;;;23.82;34.49;101090.75;4919858;28;45449;-54
2023/07/07 01:18:40;;;;;;;;;7.25;5.00;;;;;23.82;34.50;101093.41;4919645;28;45469;-54
2023/07/07 01:21:29;;;;;;;;;6.00;5.00;;;;;23.80;34.10;101092.63;4934232;28;45813;-52
2023/07/07 01:24:29;;;;;;;;;6.50;3.25;;;;;23.80;34.38;101090.88;4919227;28;45187;-54
2023/07/07 01:27:07;;;;;;;;;3.75;3.75;;;;;23.82;34.41;101093.41;4919223;28;45712;-52
2023/07/07 01:29:51;;;;;;;;;4.50;4.50;;;;;23.81;34.67;101095.22;4919333;28;45674;-49
2023/07/07 01:32:20;;;;;;;;;3.75;3.75;;;;;23.81;34.40;101095.22;4919388;28;45744;-51
2023/07/07 01:34:46;;;;;;;;;4.00;4.00;;;;;23.83;34.86;101103.03;4934121;28;45375;-51
2023/07/07 01:37:12;;;;;;;;;4.00;4.00;;;;;23.80;34.99;101097.94;4919414;28;45600;-54
2023/07/07 01:39:38;;;;;;;;;5.50;4.00;;;;;23.80;34.68;101090.88;4919234;28;46169;-51
2023/07/07 01:42:13;;;;;;;;;4.75;4.50;;;;;23.80;34.59;101092.63;4919192;28;45691;-51
2023/07/07 01:45:03;;;;;;;;;5.00;3.75;;;;;23.79;34.95;101086.50;4919317;28;45448;-51
2023/07/07 01:47:35;;;;;;;;;6.25;4.50;;;;;23.78;34.80;101090.94;4919501;28;45602;-55
2023/07/07 01:50:06;;;;;;;;;5.00;4.00;;;;;23.79;34.35;101091.81;4919374;28;46569;-51
2023/07/07 01:52:44;;;;;;;;;3.00;3.00;;;;;23.77;34.92;101083.13;4919409;28;45751;-55
2023/07/07 01:55:30;;;;;;;;;3.50;3.25;;;;;23.79;34.47;101091.81;4917482;28;45403;-53
2023/07/07 01:57:59;;;;;;;;;6.00;3.75;;;;;23.78;34.70;101090.94;4919287;28;45294;-54
2023/07/07 02:00:26;;;;;;;;;4.50;4.50;;;;;23.76;34.78;101092.84;4918842;28;45657;-52
2023/07/07 02:02:53;;;;;;;;;4.25;4.00;;;;;23.77;34.77;101088.41;4933926;28;46141;-54
2023/07/07 02:05:18;;;;;;;;;4.00;4.00;;;;;23.77;34.83;101085.75;4919075;28;45436;-55
2023/07/07 02:07:44;;;;;;;;;4.00;4.00;;;;;23.77;34.93;101080.47;4918934;28;45555;-55
2023/07/07 02:10:10;;;;;;;;;6.00;3.50;;;;;23.77;35.14;101081.31;4918852;28;45742;-52
2023/07/07 02:12:35;;;;;;;;;5.00;3.00;;;;;23.79;34.63;101086.50;4918779;28;45414;-51
2023/07/07 02:15:01;;;;;;;;;4.00;4.00;;;;;23.80;34.96;101082.06;4918898;28;50269;-55
2023/07/07 02:17:28;;;;;;;;;4.00;2.00;;;;;23.83;35.05;101081.88;4919068;28;45314;-52
2023/07/07 02:19:54;;;;;;;;;7.50;4.00;;;;;23.84;34.52;101086.22;4917520;28;45411;-56
2023/07/07 02:22:20;;;;;;;;;3.25;3.25;;;;;23.86;34.67;101086.97;4918745;28;45437;-51
2023/07/07 02:24:45;;;;;;;;;5.00;4.00;;;;;23.83;34.68;101073.94;4933607;28;45310;-53
2023/07/07 02:27:10;;;;;;;;;4.00;3.25;;;;;23.83;34.79;101072.09;4918771;28;45208;-51
2023/07/07 02:29:37;;;;;;;;;4.25;3.75;;;;;23.85;34.68;101074.69;4933139;28;51249;-48
2023/07/07 02:32:03;;;;;;;;;4.25;3.75;;;;;23.87;35.02;101081.56;4918920;28;45355;-52
2023/07/07 02:34:29;;;;;;;;;6.00;4.25;;;;;23.87;35.37;101072.75;4917506;28;45441;-52
2023/07/07 02:36:54;;;;;;;;;3.00;3.00;;;;;23.88;34.77;101072.66;4918609;28;45574;-54
2023/07/07 02:39:20;;;;;;;;;6.00;4.00;;;;;23.89;34.87;101071.72;4918270;28;46332;-54
2023/07/07 02:41:45;;;;;;;;;4.00;4.00;;;;;23.89;35.15;101070.84;4918133;28;45364;-50
2023/07/07 02:44:11;;;;;;;;;6.00;6.00;;;;;23.89;35.01;101077.03;4918381;28;45460;-51
2023/07/07 02:46:36;;;;;;;;;3.75;3.75;;;;;23.90;35.14;101076.06;4918762;28;45225;-49
2023/07/07 02:49:02;;;;;;;;;5.00;5.00;;;;;23.88;35.10;101075.31;4918287;28;45360;-52
2023/07/07 02:51:27;;;;;;;;;4.25;4.25;;;;;23.87;35.23;101072.75;4918243;28;45323;-52
2023/07/07 02:53:53;;;;;;;;;5.75;4.75;;;;;23.87;35.10;101075.41;4918297;28;45407;-53
2023/07/07 02:56:18;;;;;;;;;4.50;3.25;;;;;23.89;35.15;101076.16;4918546;28;45323;-52
2023/07/07 02:58:43;;;;;;;;;6.00;5.00;;;;;23.86;35.25;101068.44;4917967;28;45730;-52
2023/07/07 03:01:12;;;;;;;;;6.00;5.00;;;;;23.87;34.88;101075.41;4918158;28;45359;-52
2023/07/07 03:03:40;;;;;;;;;5.00;4.00;;;;;23.89;35.41;101074.38;4917233;28;45337;-50
2023/07/07 03:06:08;;;;;;;;;5.75;5.00;;;;;23.89;35.32;101079.66;4920125;28;45426;-54
2023/07/07 03:08:34;;;;;;;;;4.25;2.00;;;;;23.89;35.07;101065.56;4921694;28;45390;-51
2023/07/07 03:11:05;;;;;;;;;6.50;4.75;;;;;23.91;35.08;101067.19;4921378;28;45318;-52
2023/07/07 03:13:30;;;;;;;;;8.00;4.25;;;;;23.92;35.19;101070.66;4921401;28;45365;-58
2023/07/07 03:15:55;;;;;;;;;4.00;3.75;;;;;23.91;35.10;101064.53;4921610;28;45509;-52
2023/07/07 03:18:21;;;;;;;;;4.75;3.50;;;;;23.94;35.21;101074.06;4920882;28;59760;-54
2023/07/07 03:20:47;;;;;;;;;7.25;5.00;;;;;23.95;35.38;101070.50;4921310;28;45357;-53
2023/07/07 03:23:13;;;;;;;;;4.25;4.00;;;;;23.94;35.02;101068.78;4936027;28;45175;-54
2023/07/07 03:25:39;;;;;;;;;5.50;4.00;;;;;23.93;35.23;101059.97;4921558;28;45815;-54
2023/07/07 03:28:04;;;;;;;;;4.75;4.75;;;;;23.93;35.60;101061.78;4921327;28;46448;-53
2023/07/07 03:30:30;;;;;;;;;4.50;4.00;;;;;23.93;35.69;101067.06;4921022;28;45243;-51
2023/07/07 03:32:55;;;;;;;;;4.25;2.50;;;;;23.95;35.55;101059.91;4921294;28;45360;-54
2023/07/07 03:35:21;;;;;;;;;6.00;4.25;;;;;23.95;35.54;101059.91;4921287;28;45374;-55
2023/07/07 03:37:46;;;;;;;;;5.25;4.25;;;;;23.93;35.00;101062.59;4920953;28;45350;-53
2023/07/07 03:40:12;;;;;;;;;3.50;3.50;;;;;23.95;35.63;101070.50;4921132;28;45377;-53
2023/07/07 03:42:38;;;;;;;;;5.25;4.25;;;;;23.95;35.34;101067.84;4921427;28;45422;-54
2023/07/07 03:45:04;;;;;;;;;5.00;4.75;;;;;23.94;35.42;101074.91;4921243;28;45373;-54
2023/07/07 03:47:29;;;;;;;;;5.00;4.00;;;;;23.93;35.21;101073.19;4920724;28;45419;-52
2023/07/07 03:49:54;;;;;;;;;4.00;4.00;;;;;23.89;35.41;101069.06;4920848;28;45330;-54
2023/07/07 03:52:20;;;;;;;;;5.00;3.75;;;;;23.88;35.09;101072.66;4920872;28;45456;-53
2023/07/07 03:54:46;;;;;;;;;6.00;4.00;;;;;23.86;35.37;101074.56;4921122;28;45584;-53
2023/07/07 03:57:11;;;;;;;;;5.50;4.00;;;;;23.82;35.06;101066.94;4920749;28;46357;-48
2023/07/07 03:59:37;;;;;;;;;6.25;4.00;;;;;23.80;35.36;101061.75;4921069;28;45461;-50
2023/07/07 04:02:03;;;;;;;;;5.00;5.00;;;;;23.78;35.44;101075.06;4920900;28;45186;-50
2023/07/07 04:04:29;;;;;;;;;3.75;3.75;;;;;23.77;35.34;101077.81;4920949;28;45305;-54
2023/07/07 04:06:58;;;;;;;;;4.00;3.25;;;;;23.75;35.17;101079.72;4920609;28;45218;-54
2023/07/07 04:09:24;;;;;;;;;5.50;4.00;;;;;23.71;35.43;101070.25;4920731;28;45430;-54
2023/07/07 04:11:50;;;;;;;;;5.00;4.00;;;;;23.70;35.08;101077.38;4920794;28;45377;-53
2023/07/07 04:14:16;;;;;;;;;4.25;3.25;;;;;23.69;35.79;101080.97;4920841;28;45564;-55
2023/07/07 04:16:41;;;;;;;;;4.50;4.50;;;;;23.66;35.32;101075.84;4920310;28;45390;-55
2023/07/07 04:19:07;;;;;;;;;3.75;3.75;;;;;23.66;35.30;101081.16;4920886;28;45342;-50
2023/07/07 04:21:34;;;;;;;;;4.00;4.00;;;;;23.63;35.70;101071.63;4920613;28;45402;-54
2023/07/07 04:24:00;;;;;;;;;6.00;5.00;;;;;23.62;35.70;101075.22;4920430;28;45345;-53
2023/07/07 04:26:28;;;;;;;;;4.50;4.25;;;;;23.59;35.65;101079.88;4920427;28;45448;-53
2023/07/07 04:28:54;;;;;;;;;5.00;5.00;;;;;23.60;35.66;101086.84;4920257;28;45825;-54
2023/07/07 04:31:23;;;;;;;;;6.00;6.00;;;;;23.58;35.52;101086.97;4920354;28;45453;-54
2023/07/07 04:33:48;;;;;;;;;6.50;5.00;;;;;23.55;35.60;101083.66;4920438;28;45563;-54
2023/07/07 04:36:14;;;;;;;;;5.50;4.75;;;;;23.53;35.86;101081.09;4919977;28;46119;-54
2023/07/07 04:38:39;;;;;;;;;4.00;4.00;;;;;23.51;35.23;101082.16;4920398;28;45223;-55
2023/07/07 04:41:09;;;;;;;;;3.75;3.75;;;;;23.51;35.58;101090.09;4920162;28;45275;-54
2023/07/07 04:43:37;;;;;;;;;5.50;4.75;;;;;23.51;35.43;101090.94;4920258;28;45371;-53
2023/07/07 04:46:03;;;;;;;;;5.25;5.00;;;;;23.51;35.59;101088.28;4919923;28;46866;-53
2023/07/07 04:48:29;;;;;;;;;7.25;4.25;;;;;23.51;35.84;101087.44;4919965;28;45427;-43
2023/07/07 04:51:01;;;;;;;;;6.00;5.00;;;;;23.52;35.46;101083.88;4934867;28;45544;-51
2023/07/07 04:53:28;;;;;;;;;6.25;4.50;;;;;23.42;35.94;101079.16;4920259;28;45426;-49
2023/07/07 04:55:58;;;;;;;;;8.00;6.00;;;;;23.32;35.50;101083.31;4934628;28;48412;-48
2023/07/07 04:58:27;;;;;;;;;6.00;5.00;;;;;23.19;36.05;101077.09;4919777;28;45389;-49
2023/07/07 05:01:09;;;;;;;;;7.00;5.25;;;;;23.09;36.15;101085.63;4919923;28;45278;-49
2023/07/07 05:03:36;;;;;;;;;8.75;5.00;;;;;23.00;36.31;101088.81;4934882;28;45549;-48
2023/07/07 05:06:03;;;;;;;;;6.00;6.00;;;;;22.94;35.99;101084.75;4918348;28;45387;-48
2023/07/07 05:08:35;;;;;;;;;4.00;4.00;;;;;22.89;36.10;101081.56;4919675;28;45191;-50
2023/07/07 05:11:01;;;;;;;;;5.00;5.00;;;;;22.82;36.77;101083.72;4919880;28;45677;-49
2023/07/07 05:13:26;;;;;;;;;8.75;6.25;;;;;22.80;36.49;101088.25;4919870;28;45390;-51
2023/07/07 05:16:07;;;;;;;;;8.50;7.00;;;;;22.76;36.39;101089.41;4918193;28;47215;-49
2023/07/07 05:18:33;;;;;;;;;9.75;5.00;;;;;22.74;36.36;101083.34;4919594;28;45255;-49
2023/07/07 05:20:59;;;;;;;;;4.00;4.00;;;;;22.71;36.53;101094.09;4918335;28;45331;-50
2023/07/07 05:23:25;;;;;;;;;6.00;5.25;;;;;22.71;36.74;101096.72;4919773;28;45306;-52
2023/07/07 05:25:51;;;;;;;;;4.25;4.25;;;;;22.67;36.82;101098.72;4919295;28;46708;-51
2023/07/07 05:28:17;;;;;;;;;5.25;5.25;;;;;22.62;37.01;101094.66;4918382;28;45768;-50
2023/07/07 05:30:43;;;;;;;;;5.50;5.00;;;;;22.57;36.80;101099.34;4918596;28;45329;-51
2023/07/07 05:33:09;;;;;;;;;2.00;2.00;;;;;22.53;37.40;101098.69;4919645;28;45568;-49
2023/07/07 05:35:34;;;;;;;;;5.25;5.25;;;;;22.50;37.29;101102.38;4919232;28;45381;-50
2023/07/07 05:38:00;;;;;;;;;6.00;5.00;;;;;22.47;37.24;101102.53;4919283;28;45449;-50
2023/07/07 05:40:29;;;;;;;;;4.25;3.50;;;;;22.46;37.25;101100.00;4919427;28;45397;-50
2023/07/07 05:42:54;;;;;;;;;11.50;5.00;;;;;22.44;37.31;101108.00;4934271;28;45484;-50
2023/07/07 05:45:23;;;;;;;;;4.75;4.75;;;;;22.45;37.26;101108.88;4919083;28;46374;-53
2023/07/07 05:47:48;;;;;;;;;4.50;4.50;;;;;22.42;37.41;101109.03;4919039;28;45282;-50
2023/07/07 05:50:13;;;;;;;;;5.00;4.75;;;;;22.39;37.33;101102.13;4919506;28;45708;-49
2023/07/07 05:52:39;;;;;;;;;8.50;5.00;;;;;22.37;37.56;101101.34;4919320;28;45551;-48
2023/07/07 05:55:05;;;;;;;;;5.50;5.50;;;;;22.37;37.76;101104.00;4918595;28;57239;-49
2023/07/07 05:57:31;;;;;;;;;6.25;5.75;;;;;22.38;37.62;101103.06;4918906;28;45274;-48
2023/07/07 05:59:56;;;;;;;;;5.25;3.25;;;;;22.39;37.81;101104.75;4919103;28;45230;-51
2023/07/07 06:02:21;;;;;;;;;9.00;6.00;;;;;22.40;38.07;101098.53;4918515;28;57161;-51
2023/07/07 06:04:46;;;;;;;;;8.00;6.00;;;;;22.44;37.72;101108.00;4918806;28;55769;-49
2023/07/07 06:07:12;;;;;;;;;7.00;5.25;;;;;22.49;38.11;101102.47;4918935;28;45318;-50
2023/07/07 06:09:38;;;;;;;;;8.00;5.75;;;;;22.51;38.02;101101.44;4918930;28;45408;-50
2023/07/07 06:12:04;;;;;;;;;6.50;5.00;;;;;22.55;38.16;101102.94;4919104;28;45309;-49
2023/07/07 06:14:29;;;;;;;;;7.50;6.00;;;;;22.58;37.87;101101.06;4918722;28;45457;-48
2023/07/07 06:16:55;;;;;;;;;8.25;5.25;;;;;22.60;37.95;101105.28;4918191;28;58082;-48
2023/07/07 06:19:20;;;;;;;;;9.00;5.75;;;;;22.61;38.08;101098.22;4918737;28;45300;-50
2023/07/07 06:21:45;;;;;;;;;5.50;5.25;;;;;22.65;38.21;101103.25;4919128;28;45668;-48
2023/07/07 06:24:11;;;;;;;;;7.25;7.25;;;;;22.70;37.91;101102.97;4918443;28;48655;-49
2023/07/07 06:26:39;;;;;;;;;5.25;5.25;;;;;22.74;37.90;101100.97;4918345;28;52106;-51
2023/07/07 06:29:05;;;;;;;;;7.50;5.75;;;;;22.77;37.77;101098.16;4918735;28;45312;-46
2023/07/07 06:31:30;;;;;;;;;7.25;6.75;;;;;22.84;38.04;101105.63;4918619;28;45230;-50
2023/07/07 06:33:55;;;;;;;;;5.75;5.75;;;;;22.91;38.17;101105.22;4918559;28;45383;-52
2023/07/07 06:36:21;;;;;;;;;6.00;6.00;;;;;22.94;37.73;101103.25;4918280;28;45343;-51
2023/07/07 06:38:46;;;;;;;;;5.00;5.00;;;;;22.97;37.99;101113.63;4918920;28;45330;-50
2023/07/07 06:41:12;;;;;;;;;10.00;6.75;;;;;23.02;37.85;101108.06;4921516;28;45830;-48
2023/07/07 06:43:38;;;;;;;;;5.25;5.00;;;;;23.06;37.83;101106.94;4920630;28;47746;-48
2023/07/07 06:46:03;;;;;;;;;5.50;5.50;;;;;23.12;37.90;101106.53;4921628;28;51635;-49
2023/07/07 06:48:29;;;;;;;;;8.25;6.00;;;;;23.16;37.82;101104.56;4921809;28;45277;-51
2023/07/07 06:50:54;;;;;;;;;6.25;5.00;;;;;23.22;37.23;101106.88;4921947;28;45470;-49
2023/07/07 06:53:19;;;;;;;;;5.00;5.00;;;;;23.25;37.78;101111.09;4922024;28;46035;-51
2023/07/07 06:55:45;;;;;;;;;6.00;6.00;;;;;23.28;37.80;101116.22;4921535;28;49262;-49
2023/07/07 06:58:12;;;;;;;;;8.00;6.50;;;;;23.33;37.49;101105.34;4921723;28;45838;-51
2023/07/07 07:00:38;;;;;;;;;7.25;7.25;;;;;23.37;37.87;101114.78;4936789;28;45252;-52
2023/07/07 07:03:03;;;;;;;;;9.00;6.00;;;;;23.41;37.65;101108.34;4921603;28;46199;-51
2023/07/07 07:05:29;;;;;;;;;10.00;6.00;;;;;23.44;37.50;101116.09;4921559;28;45297;-50
2023/07/07 07:07:54;;;;;;;;;7.00;6.75;;;;;23.45;37.58;101115.97;4920205;28;45360;-50
2023/07/07 07:10:20;;;;;;;;;6.75;6.75;;;;;23.49;37.57;101110.50;4921734;28;45288;-50
2023/07/07 07:12:45;;;;;;;;;7.25;5.25;;;;;23.50;37.57;101106.91;4921383;28;46617;-51
2023/07/07 07:15:10;;;;;;;;;5.00;5.00;;;;;23.52;37.29;101113.81;4921264;28;45227;-47
2023/07/07 07:17:39;;;;;;;;;5.50;4.50;;;;;23.57;37.47;101110.84;4921490;28;45467;-49
2023/07/07 07:20:06;;;;;;;;;9.00;7.00;;;;;23.60;37.55;101115.97;4921592;28;45413;-49
2023/07/07 07:22:32;;;;;;;;;7.75;6.50;;;;;23.62;37.18;101112.25;4921237;28;45428;-49
2023/07/07 07:24:57;;;;;;;;;6.50;5.00;;;;;23.63;37.42;101121.06;4921108;28;45476;-50
2023/07/07 07:27:22;;;;;;;;;6.75;5.25;;;;;23.63;36.85;101113.97;4936342;28;45315;-48
2023/07/07 07:29:48;;;;;;;;;9.00;6.25;;;;;23.65;37.50;101121.78;4921896;28;45656;-48
2023/07/07 07:32:13;;;;;;;;;6.00;6.00;;;;;23.68;37.35;101118.13;4919812;28;47350;-48
2023/07/07 07:34:39;;;;;;;;;7.75;6.00;;;;;23.69;37.14;101119.81;4935792;28;45307;-49
2023/07/07 07:37:05;;;;;;;;;7.00;6.00;;;;;23.72;37.24;101123.13;4921197;28;45286;-50
2023/07/07 07:39:31;;;;;;;;;6.00;5.00;;;;;23.71;36.82;101120.53;4921187;28;45217;-48
2023/07/07 07:41:56;;;;;;;;;8.00;7.00;;;;;23.76;36.99;101124.59;4920710;28;48170;-48
2023/07/07 07:44:24;;;;;;;;;9.75;5.75;;;;;23.78;37.31;101122.69;4921234;28;45231;-48
2023/07/07 07:46:51;;;;;;;;;7.50;6.50;;;;;23.82;37.22;101122.50;4921324;28;45417;-50
2023/07/07 07:49:17;;;;;;;;;6.50;6.00;;;;;23.83;36.82;101114.47;4921052;28;45439;-51
2023/07/07 07:51:43;;;;;;;;;11.50;5.50;;;;;23.86;37.24;101119.56;4919985;28;46695;-49
2023/07/07 07:54:11;;;;;;;;;5.50;5.50;;;;;23.90;37.35;101125.50;4920765;28;45297;-48
2023/07/07 07:56:37;;;;;;;;;7.50;7.00;;;;;23.92;37.32;101120.97;4920984;28;45283;-49
2023/07/07 07:59:04;;;;;;;;;8.00;6.50;;;;;23.94;37.29;101127.00;4920972;28;45528;-52
2023/07/07 08:01:29;;;;;;;;;9.00;5.25;;;;;23.96;36.95;101135.75;4920560;28;45572;-50
2023/07/07 08:03:55;;;;;;;;;4.00;4.00;;;;;23.95;36.99;101118.16;4919687;28;45429;-50
2023/07/07 08:06:21;;;;;;;;;7.50;6.50;;;;;24.02;37.24;101134.50;4921134;28;45433;-50
2023/07/07 08:08:46;;;;;;;;;10.00;6.50;;;;;24.03;37.49;101137.03;4920812;28;45321;-49
2023/07/07 08:11:15;;;;;;;;;6.50;6.50;;;;;24.05;36.98;101135.13;4920323;28;45533;-49
2023/07/07 08:13:40;;;;;;;;;8.00;5.00;;;;;24.08;36.92;101139.38;4920555;28;45410;-52
2023/07/07 08:16:10;;;;;;;;;10.00;7.00;;;;;24.11;36.96;101133.00;4920644;28;45263;-52
2023/07/07 08:18:36;;;;;;;;;7.00;7.00;;;;;24.12;36.83;101134.72;4920821;28;45402;-51
2023/07/07 08:21:01;;;;;;;;;7.00;6.00;;;;;24.15;37.49;101140.66;4920421;28;46527;-49
2023/07/07 08:23:26;;;;;;;;;8.00;6.75;;;;;24.17;37.42;101135.28;4920430;28;45484;-51
2023/07/07 08:25:52;;;;;;;;;8.00;6.00;;;;;24.20;36.96;101145.63;4920186;28;48222;-46
2023/07/07 08:28:18;;;;;;;;;5.75;5.75;;;;;24.23;37.66;101137.50;4920443;28;45286;-48
2023/07/07 08:30:43;;;;;;;;;8.00;7.00;;;;;24.26;37.61;101139.94;4920013;28;46730;-48
2023/07/07 08:33:08;;;;;;;;;8.50;6.25;;;;;24.28;37.51;101132.75;4919762;28;57570;-46
2023/07/07 08:35:34;;;;;;;;;8.25;5.50;;;;;24.30;37.44;101128.22;4920056;28;45275;-50
2023/07/07 08:38:00;;;;;;;;;9.00;6.50;;;;;24.33;37.33;101132.44;4920293;28;45627;-49
2023/07/07 08:40:35;;;;;;;;;6.00;6.00;;;;;24.35;37.57;101127.91;4920327;28;45617;-49
2023/07/07 08:43:01;;;;;;;;;8.00;8.00;;;;;24.37;37.15;101129.50;4920166;28;45743;-51
2023/07/07 08:45:27;;;;;;;;;7.00;6.75;;;;;24.41;37.72;101124.00;4920477;28;45341;-48
2023/07/07 08:48:25;;;;;;;;;8.25;6.00;;;;;24.42;37.10;101123.03;4920466;28;45600;-48
2023/07/07 08:50:56;;;;;;;;;7.00;6.25;;;;;24.45;37.70;101121.03;4917061;28;45462;-47
2023/07/07 08:53:40;;;;;;;;;9.00;7.00;;;;;24.48;37.20;101125.25;4919983;28;45337;-52
2023/07/07 08:56:24;;;;;;;;;8.75;8.75;;;;;24.49;37.50;101121.66;4920041;28;45350;-55
2023/07/07 08:58:59;;;;;;;;;8.75;7.25;;;;;24.51;37.28;101127.72;4920237;28;45243;-56
2023/07/07 09:01:44;;;;;;;;;8.50;6.25;;;;;24.51;37.17;101120.59;4919813;28;45652;-57
2023/07/07 09:04:27;;;;;;;;;7.75;6.00;;;;;24.53;37.73;101117.84;4919507;28;45765;-48
2023/07/07 09:07:08;;;;;;;;;7.50;7.50;;;;;24.55;37.76;101131.81;4922491;28;45430;-50
2023/07/07 09:09:46;;;;;;;;;6.50;6.50;;;;;24.55;37.82;101126.53;4939212;28;45464;-51
2023/07/07 09:12:37;;;;;;;;;8.00;6.75;;;;;24.58;37.74;101131.63;4938630;28;45428;-50
2023/07/07 09:15:15;;;;;;;;;8.00;6.00;;;;;24.60;37.58;101131.50;4938755;28;45782;-52
2023/07/07 09:17:45;;;;;;;;;7.25;6.25;;;;;24.63;37.83;101133.97;4938841;28;45341;-48
2023/07/07 09:20:14;;;;;;;;;10.50;6.50;;;;;24.64;37.43;101125.91;4936536;28;45291;-51
2023/07/07 09:22:55;;;;;;;;;9.00;6.00;;;;;24.66;37.90;101124.00;4918613;28;46080;-48
2023/07/07 09:25:44;;;;;;;;;10.25;7.25;;;;;24.67;37.15;101120.41;4918530;28;45411;-48
2023/07/07 09:28:11;;;;;;;;;8.25;7.00;;;;;24.69;37.39;101115.88;4918892;28;45285;-50
2023/07/07 09:30:57;;;;;;;;;8.00;6.75;;;;;24.70;37.76;101119.34;4918914;28;45752;-47
2023/07/07 09:33:24;;;;;;;;;8.00;6.75;;;;;24.70;37.32;101114.94;4918626;28;47598;-53
2023/07/07 09:36:08;;;;;;;;;9.25;8.00;;;;;24.72;37.62;101111.31;4918586;28;45950;-47
2023/07/07 09:38:55;;;;;;;;;6.00;5.00;;;;;24.75;37.81;101111.13;4917640;28;45404;-49
2023/07/07 09:41:32;;;;;;;;;7.25;7.25;;;;;24.76;37.80;101112.78;4918596;28;45408;-51
2023/07/07 09:44:19;;;;;;;;;10.25;5.25;;;;;24.74;37.48;101101.47;4918698;28;46619;-42
2023/07/07 09:47:05;;;;;;;;;7.25;7.25;;;;;24.78;37.24;101108.22;4918313;28;45397;-44
2023/07/07 09:49:45;;;;;;;;;9.75;5.25;;;;;24.78;37.23;101106.44;4918980;28;45650;-50
2023/07/07 09:52:25;;;;;;;;;4.75;4.25;;;;;24.79;37.52;101104.63;4919255;28;45291;-51
2023/07/07 09:54:52;;;;;;;;;7.50;7.00;;;;;24.79;37.59;101108.16;4918978;28;45540;-49
2023/07/07 09:57:28;;;;;;;;;10.00;6.00;;;;;24.78;37.93;101106.44;4933549;28;45715;-50
2023/07/07 09:59:56;;;;;;;;;7.75;7.00;;;;;24.81;37.74;101108.03;4918818;28;45180;-52
2023/07/07 10:02:23;;;;;;;;;7.25;7.25;;;;;24.81;37.61;101105.38;4934057;28;45327;-52
2023/07/07 10:05:02;;;;;;;;;12.75;8.25;;;;;24.80;37.87;101109.84;4918848;28;46034;-52
2023/07/07 10:07:33;;;;;;;;;9.75;7.00;;;;;24.82;37.42;101109.72;4917777;28;45355;-52
2023/07/07 10:09:59;;;;;;;;;9.75;7.25;;;;;24.84;38.09;101107.81;4919557;28;45484;-52
2023/07/07 10:12:24;;;;;;;;;8.75;8.50;;;;;24.83;37.48;101103.47;4919171;28;45536;-52
2023/07/07 10:14:50;;;;;;;;;7.75;7.75;;;;;24.83;37.82;101103.47;4921293;28;46446;-51
2023/07/07 10:17:50;;;;;;;;;10.00;9.00;;;;;24.82;38.15;101097.31;4925134;28;45377;-51
2023/07/07 10:20:16;;;;;;;;;8.25;7.50;;;;;24.83;38.03;101098.16;4925315;28;45255;-50
2023/07/07 10:22:42;;;;;;;;;9.75;8.00;;;;;24.84;38.10;101094.56;4924927;28;45479;-49
2023/07/07 10:25:12;;;;;;;;;11.25;8.25;;;;;24.84;38.27;101090.09;4924827;28;45457;-49
2023/07/07 10:27:38;;;;;;;;;8.50;7.00;;;;;24.86;37.73;101084.69;4924991;28;45733;-50
2023/07/07 10:30:05;;;;;;;;;10.00;9.00;;;;;24.88;37.81;101090.72;4925496;28;45316;-52
2023/07/07 10:32:30;;;;;;;;;11.75;9.75;;;;;24.89;38.01;101096.91;4925434;28;45559;-50
2023/07/07 10:35:03;;;;;;;;;10.00;9.25;;;;;24.90;38.29;101088.81;4924838;28;47035;-49
2023/07/07 10:37:30;;;;;;;;;10.00;8.25;;;;;24.90;38.00;101090.63;4924919;28;45757;-49
2023/07/07 10:39:58;;;;;;;;;10.50;7.75;;;;;24.92;38.30;101091.34;4925144;28;45373;-49
2023/07/07 10:42:25;;;;;;;;;11.50;9.00;;;;;24.93;38.47;101085.97;4923818;28;45548;-52
2023/07/07 10:44:57;;;;;;;;;10.00;10.00;;;;;24.94;38.35;101085.00;4924824;28;45467;-50
2023/07/07 10:47:30;;;;;;;;;10.25;9.00;;;;;24.95;37.93;101089.34;4924672;28;45253;-49
2023/07/07 10:49:56;;;;;;;;;8.25;8.00;;;;;24.97;38.07;101082.13;4925003;28;45227;-50
2023/07/07 10:52:34;;;;;;;;;8.25;8.25;;;;;24.98;37.80;101090.94;4939876;28;45351;-50
2023/07/07 10:55:05;;;;;;;;;11.00;8.25;;;;;24.98;38.45;101080.34;4925022;28;46531;-50
2023/07/07 10:58:05;;;;;;;;;9.50;8.00;;;;;24.99;37.88;101084.69;4925076;28;45791;-53
2023/07/07 11:01:04;;;;;;;;;10.75;8.25;;;;;25.00;37.95;101084.56;4901484;28;45469;-49
2023/07/07 11:03:50;;;;;;;;;9.00;7.25;;;;;25.02;38.44;101076.53;4925153;28;45412;-51
2023/07/07 11:06:31;;;;;;;;;8.25;7.50;;;;;25.05;38.06;101072.78;4924731;28;46741;-48
2023/07/07 11:09:16;;;;;;;;;8.75;8.75;;;;;25.06;37.98;101072.69;4924546;28;45349;-48
2023/07/07 11:11:48;;;;;;;;;10.00;8.50;;;;;25.06;38.11;101062.06;4939485;28;45384;-49
2023/07/07 11:14:37;;;;;;;;;9.25;7.75;;;;;25.08;38.11;101059.31;4924850;28;45419;-45
2023/07/07 11:17:08;;;;;;;;;11.00;7.75;;;;;25.10;37.85;101058.25;4924867;28;45372;-50
2023/07/07 11:19:51;;;;;;;;;7.00;7.00;;;;;25.11;37.89;101059.94;4925077;28;45778;-53
2023/07/07 11:22:45;;;;;;;;;4.25;4.25;;;;;25.10;38.12;101049.44;4924601;28;45257;-51
2023/07/07 11:25:29;;;;;;;;;7.50;6.00;;;;;25.13;38.14;101051.88;4924195;28;45317;-51
2023/07/07 11:28:02;;;;;;;;;7.00;7.00;;;;;25.11;38.30;101033.44;4919831;28;45387;-51
2023/07/07 11:30:36;;;;;;;;;9.75;6.25;;;;;25.12;37.75;101032.47;4920882;28;45444;-50
2023/07/07 11:33:50;;;;;;;;;11.25;9.00;;;;;25.12;37.78;101029.81;4921454;28;45506;-53
2023/07/07 11:36:30;;;;;;;;;14.25;6.00;;;;;25.14;37.52;101029.69;4869115;28;45380;-52